createdAt,value
2018-05-12T00:02:08.747Z,101477.70
2018-05-12T00:04:36.248Z,101483.20
2018-05-12T00:07:03.782Z,101486.93
2018-05-12T00:09:31.278Z,101484.51
2018-05-12T00:11:58.847Z,101481.95
2018-05-12T00:14:26.353Z,101483.82
2018-05-12T00:16:53.836Z,101482.41
2018-05-12T00:19:21.345Z,101484.30
2018-05-12T00:21:48.861Z,101481.21
2018-05-12T00:24:16.359Z,101480.40
2018-05-12T00:26:43.877Z,101472.73
2018-05-12T00:29:11.475Z,101469.56
2018-05-12T00:31:39.084Z,101469.38
2018-05-12T00:34:06.605Z,101468.98
2018-05-12T00:36:34.072Z,101473.11
2018-05-12T00:39:01.587Z,101473.45
2018-05-12T00:41:29.205Z,101474.61
2018-05-12T00:43:56.754Z,101476.30
2018-05-12T00:46:24.269Z,101470.68
2018-05-12T00:48:51.742Z,101472.92
2018-05-12T00:51:19.318Z,101470.23
2018-05-12T00:53:46.852Z,101469.87
2018-05-12T00:56:14.320Z,101464.81
2018-05-12T00:58:42.435Z,101463.52
2018-05-12T01:01:10.086Z,101462.70
2018-05-12T01:03:37.610Z,101466.08
2018-05-12T01:06:05.793Z,101466.83
2018-05-12T01:08:33.348Z,101459.23
2018-05-12T01:11:00.819Z,101457.94
2018-05-12T01:13:28.555Z,101456.27
2018-05-12T01:15:56.074Z,101450.63
2018-05-12T01:18:23.654Z,101452.88
2018-05-12T01:20:51.136Z,101453.58
2018-05-12T01:23:18.597Z,101452.69
2018-05-12T01:25:46.125Z,101447.97
2018-05-12T01:28:13.614Z,101453.17
2018-05-12T01:30:41.121Z,101445.72
2018-05-12T01:33:08.594Z,101441.98
2018-05-12T01:35:36.084Z,101447.86
2018-05-12T01:38:03.889Z,101440.52
2018-05-12T01:40:31.594Z,101450.13
2018-05-12T01:42:59.096Z,101452.61
2018-05-12T01:45:26.625Z,101456.42
2018-05-12T01:47:54.149Z,101451.06
2018-05-12T01:50:21.671Z,101455.73
2018-05-12T01:52:49.161Z,101464.16
2018-05-12T01:55:16.689Z,101457.27
2018-05-12T01:57:44.172Z,101452.17
2018-05-12T02:00:11.853Z,101448.19
2018-05-12T02:02:39.353Z,101446.56
2018-05-12T02:05:06.902Z,101442.95
2018-05-12T02:07:34.398Z,101444.78
2018-05-12T02:10:01.895Z,101444.59
2018-05-12T02:12:29.445Z,101438.11
2018-05-12T02:14:56.927Z,101438.56
2018-05-12T02:17:24.446Z,101437.16
2018-05-12T02:19:51.952Z,101444.22
2018-05-12T02:22:19.461Z,101446.43
2018-05-12T02:24:47.027Z,101448.53
2018-05-12T02:27:14.689Z,101443.12
2018-05-12T02:29:42.268Z,101448.78
2018-05-12T02:32:09.769Z,101447.28
2018-05-12T02:34:37.328Z,101453.30
2018-05-12T02:37:04.819Z,101450.17
2018-05-12T02:39:32.490Z,101454.03
2018-05-12T02:42:00.001Z,101452.44
2018-05-12T02:44:27.479Z,101450.08
2018-05-12T02:46:55.004Z,101450.82
2018-05-12T02:49:22.500Z,101449.78
2018-05-12T02:51:49.995Z,101457.28
2018-05-12T02:54:17.532Z,101456.66
2018-05-12T02:56:45.035Z,101459.08
2018-05-12T02:59:12.560Z,101452.58
2018-05-12T03:01:40.070Z,101455.06
2018-05-12T03:04:07.573Z,101451.89
2018-05-12T03:06:35.103Z,101447.91
2018-05-12T03:09:02.608Z,101452.62
2018-05-12T03:11:30.182Z,101451.72
2018-05-12T03:13:57.792Z,101449.89
2018-05-12T03:16:25.326Z,101459.16
2018-05-12T03:18:52.825Z,101456.63
2018-05-12T03:21:20.318Z,101454.78
2018-05-12T03:23:47.820Z,101455.05
2018-05-12T03:26:15.286Z,101455.17
2018-05-12T03:28:42.799Z,101457.08
2018-05-12T03:31:10.292Z,101463.06
2018-05-12T03:33:37.797Z,101457.30
2018-05-12T03:36:05.280Z,101455.34
2018-05-12T03:38:32.800Z,101454.88
2018-05-12T03:41:00.270Z,101450.70
2018-05-12T03:43:27.804Z,101449.70
2018-05-12T03:45:55.313Z,101453.72
2018-05-12T03:48:22.789Z,101459.05
2018-05-12T03:50:50.315Z,101458.22
2018-05-12T03:53:17.836Z,101460.19
2018-05-12T03:55:45.334Z,101457.86
2018-05-12T03:58:12.832Z,101456.16
2018-05-12T04:00:40.796Z,101462.55
2018-05-12T04:03:08.288Z,101460.01
2018-05-12T04:05:47.833Z,101460.16
2018-05-12T04:08:29.534Z,101457.47
2018-05-12T04:11:08.833Z,101463.40
2018-05-12T04:13:36.622Z,101459.72
2018-05-12T04:16:04.135Z,101456.73
2018-05-12T04:18:31.664Z,101462.86
2018-05-12T04:20:59.267Z,101461.50
2018-05-12T04:23:26.731Z,101460.36
2018-05-12T04:25:54.240Z,101461.23
2018-05-12T04:28:21.779Z,101459.28
2018-05-12T04:30:49.257Z,101459.17
2018-05-12T04:33:17.128Z,101459.41
2018-05-12T04:35:44.627Z,101463.27
2018-05-12T04:38:12.214Z,101476.34
2018-05-12T04:40:39.862Z,101473.45
2018-05-12T04:43:07.465Z,101469.93
2018-05-12T04:45:34.953Z,101468.61
2018-05-12T04:48:02.476Z,101467.12
2018-05-12T04:50:29.975Z,101465.48
2018-05-12T04:52:57.477Z,101470.98
2018-05-12T04:55:24.989Z,101471.40
2018-05-12T04:57:52.571Z,101471.67
2018-05-12T05:00:20.273Z,101464.58
2018-05-12T05:02:47.753Z,101468.53
2018-05-12T05:05:15.258Z,101461.12
2018-05-12T05:07:42.814Z,101462.89
2018-05-12T05:10:10.355Z,101467.78
2018-05-12T05:12:37.871Z,101479.05
2018-05-12T05:15:05.365Z,101489.86
2018-05-12T05:17:32.858Z,101492.87
2018-05-12T05:20:00.438Z,101488.92
2018-05-12T05:22:27.966Z,101494.40
2018-05-12T05:24:55.626Z,101485.16
2018-05-12T05:27:23.143Z,101481.70
2018-05-12T05:29:50.661Z,101479.59
2018-05-12T05:32:18.156Z,101470.75
2018-05-12T05:34:45.753Z,101477.87
2018-05-12T05:37:13.238Z,101477.67
2018-05-12T05:39:40.743Z,101489.83
2018-05-12T05:42:08.591Z,101488.85
2018-05-12T05:44:36.081Z,101487.27
2018-05-12T05:47:03.571Z,101492.39
2018-05-12T05:49:31.112Z,101493.80
2018-05-12T05:51:58.876Z,101495.36
2018-05-12T05:54:26.343Z,101498.23
2018-05-12T05:56:53.949Z,101500.19
2018-05-12T05:59:21.428Z,101491.93
2018-05-12T06:01:49.041Z,101491.47
2018-05-12T06:04:16.657Z,101490.84
2018-05-12T06:06:44.213Z,101498.45
2018-05-12T06:09:11.684Z,101496.11
2018-05-12T06:11:39.163Z,101496.73
2018-05-12T06:14:06.718Z,101492.17
2018-05-12T06:16:34.223Z,101493.16
2018-05-12T06:19:01.774Z,101500.10
2018-05-12T06:21:29.295Z,101500.96
2018-05-12T06:23:57.073Z,101497.72
2018-05-12T06:26:24.567Z,101508.16
2018-05-12T06:28:52.098Z,101497.74
2018-05-12T06:31:19.785Z,101506.57
2018-05-12T06:33:47.292Z,101504.63
2018-05-12T06:36:15.666Z,101500.47
2018-05-12T06:38:43.139Z,101505.08
2018-05-12T06:41:10.661Z,101502.37
2018-05-12T06:43:38.152Z,101504.84
2018-05-12T06:46:05.619Z,101506.65
2018-05-12T06:48:33.122Z,101506.03
2018-05-12T06:51:00.612Z,101507.70
2018-05-12T06:53:28.133Z,101503.54
2018-05-12T06:55:55.631Z,101505.39
2018-05-12T06:58:23.143Z,101508.08
2018-05-12T07:00:50.679Z,101501.75
2018-05-12T07:03:18.171Z,101507.12
2018-05-12T07:05:45.785Z,101504.90
2018-05-12T07:08:13.336Z,101506.49
2018-05-12T07:10:40.861Z,101499.95
2018-05-12T07:13:08.353Z,101507.44
2018-05-12T07:15:35.853Z,101510.36
2018-05-12T07:18:03.327Z,101504.00
2018-05-12T07:20:30.883Z,101506.50
2018-05-12T07:22:58.384Z,101505.09
2018-05-12T07:25:25.900Z,101509.28
2018-05-12T07:27:53.458Z,101510.53
2018-05-12T07:30:20.997Z,101508.25
2018-05-12T07:32:48.519Z,101505.67
2018-05-12T07:35:16.021Z,101503.05
2018-05-12T07:37:43.521Z,101503.61
2018-05-12T07:40:11.146Z,101503.52
2018-05-12T07:42:38.657Z,101505.59
2018-05-12T07:45:06.133Z,101500.51
2018-05-12T07:47:33.659Z,101496.02
2018-05-12T07:50:01.305Z,101495.45
2018-05-12T07:52:28.814Z,101495.48
2018-05-12T07:54:56.333Z,101499.70
2018-05-12T07:57:23.970Z,101496.58
2018-05-12T07:59:51.488Z,101490.77
2018-05-12T08:02:18.989Z,101486.96
2018-05-12T08:04:46.547Z,101494.70
2018-05-12T08:07:14.039Z,101491.98
2018-05-12T08:09:41.543Z,101486.02
2018-05-12T08:12:09.089Z,101488.84
2018-05-12T08:14:36.627Z,101484.91
2018-05-12T08:17:04.177Z,101487.62
2018-05-12T08:19:31.649Z,101490.52
2018-05-12T08:21:59.145Z,101483.41
2018-05-12T08:24:26.630Z,101481.64
2018-05-12T08:26:54.180Z,101477.67
2018-05-12T08:29:21.775Z,101470.30
2018-05-12T08:31:49.268Z,101468.38
2018-05-12T08:34:16.777Z,101472.98
2018-05-12T08:36:44.273Z,101466.13
2018-05-12T08:39:11.774Z,101466.41
2018-05-12T08:41:39.783Z,101465.02
2018-05-12T08:44:07.262Z,101464.59
2018-05-12T08:46:34.770Z,101467.33
2018-05-12T08:49:02.302Z,101464.84
2018-05-12T08:51:29.876Z,101463.35
2018-05-12T08:53:57.349Z,101457.72
2018-05-12T08:56:24.870Z,101453.48
2018-05-12T08:58:52.361Z,101460.44
2018-05-12T09:01:19.948Z,101456.15
2018-05-12T09:03:47.419Z,101452.62
2018-05-12T09:06:14.932Z,101452.84
2018-05-12T09:08:42.419Z,101448.94
2018-05-12T09:11:09.958Z,101443.89
2018-05-12T09:13:37.464Z,101446.69
2018-05-12T09:16:04.961Z,101445.27
2018-05-12T09:18:32.456Z,101448.73
2018-05-12T09:20:59.972Z,101449.98
2018-05-12T09:23:27.449Z,101455.14
2018-05-12T09:25:54.973Z,101455.89
2018-05-12T09:28:22.550Z,101456.78
2018-05-12T09:30:50.069Z,101447.44
2018-05-12T09:33:17.912Z,101445.64
2018-05-12T09:35:45.563Z,101446.17
2018-05-12T09:38:13.055Z,101444.94
2018-05-12T09:40:40.561Z,101441.59
2018-05-12T09:43:08.144Z,101444.51
2018-05-12T09:45:35.738Z,101450.05
2018-05-12T09:48:03.242Z,101443.61
2018-05-12T09:50:30.719Z,101436.28
2018-05-12T09:52:58.244Z,101442.58
2018-05-12T09:55:25.708Z,101444.89
2018-05-12T09:57:53.219Z,101442.53
2018-05-12T10:00:25.522Z,101437.31
2018-05-12T10:02:53.045Z,101430.49
2018-05-12T10:05:20.537Z,101432.59
2018-05-12T10:07:48.019Z,101430.67
2018-05-12T10:10:15.580Z,101430.88
2018-05-12T10:12:43.229Z,101424.78
2018-05-12T10:15:10.669Z,101426.57
2018-05-12T10:17:38.164Z,101424.70
2018-05-12T10:20:05.680Z,101419.48
2018-05-12T10:22:33.201Z,101427.09
2018-05-12T10:25:00.711Z,101421.44
2018-05-12T10:27:28.276Z,101422.93
2018-05-12T10:29:55.811Z,101412.75
2018-05-12T10:32:23.318Z,101416.65
2018-05-12T10:34:50.825Z,101411.11
2018-05-12T10:37:18.371Z,101406.69
2018-05-12T10:39:45.862Z,101404.72
2018-05-12T10:42:13.389Z,101406.58
2018-05-12T10:44:40.891Z,101396.13
2018-05-12T10:47:08.455Z,101391.08
2018-05-12T10:49:35.955Z,101393.97
2018-05-12T10:52:03.554Z,101383.41
2018-05-12T10:54:31.033Z,101389.30
2018-05-12T10:56:58.549Z,101385.86
2018-05-12T10:59:26.024Z,101381.52
2018-05-12T11:01:53.689Z,101383.30
2018-05-12T11:04:21.248Z,101377.49
2018-05-12T11:06:48.752Z,101379.09
2018-05-12T11:09:16.326Z,101374.69
2018-05-12T11:11:43.896Z,101367.66
2018-05-12T11:14:11.376Z,101365.31
2018-05-12T11:16:38.913Z,101361.47
2018-05-12T11:19:06.418Z,101355.24
2018-05-12T11:21:33.960Z,101356.25
2018-05-12T11:24:01.404Z,101360.91
2018-05-12T11:26:29.477Z,101359.22
2018-05-12T11:28:57.007Z,101355.41
2018-05-12T11:31:24.534Z,101359.01
2018-05-12T11:33:52.172Z,101352.66
2018-05-12T11:36:19.826Z,101352.60
2018-05-12T11:38:47.409Z,101349.73
2018-05-12T11:41:14.836Z,101353.45
2018-05-12T11:43:42.441Z,101353.59
2018-05-12T11:46:09.925Z,101345.34
2018-05-12T11:48:37.737Z,101339.80
2018-05-12T11:51:05.204Z,101336.12
2018-05-12T11:53:32.694Z,101338.64
2018-05-12T11:56:00.217Z,101337.48
2018-05-12T11:58:28.004Z,101333.09
2018-05-12T12:00:55.469Z,101340.36
2018-05-12T12:03:23.402Z,101330.69
2018-05-12T12:05:50.908Z,101332.63
2018-05-12T12:08:18.432Z,101327.43
2018-05-12T12:10:45.951Z,101316.48
2018-05-12T12:13:13.482Z,101310.47
2018-05-12T12:15:41.037Z,101313.37
2018-05-12T12:18:08.657Z,101314.39
2018-05-12T12:20:36.138Z,101303.83
2018-05-12T12:23:03.719Z,101297.39
2018-05-12T12:25:31.954Z,101302.68
2018-05-12T12:27:59.454Z,101299.52
2018-05-12T12:30:26.955Z,101292.16
2018-05-12T12:32:54.438Z,101289.55
2018-05-12T12:35:22.041Z,101289.36
2018-05-12T12:37:49.536Z,101284.47
2018-05-12T12:40:17.029Z,101289.12
2018-05-12T12:42:44.580Z,101284.22
2018-05-12T12:45:12.059Z,101282.77
2018-05-12T12:47:39.576Z,101274.41
2018-05-12T12:50:07.071Z,101282.38
2018-05-12T12:52:34.578Z,101271.36
2018-05-12T12:55:02.054Z,101274.05
2018-05-12T12:57:29.575Z,101274.27
2018-05-12T12:59:57.114Z,101267.20
2018-05-12T13:02:24.606Z,101261.14
2018-05-12T13:04:52.161Z,101261.58
2018-05-12T13:07:19.654Z,101266.66
2018-05-12T13:09:47.172Z,101267.26
2018-05-12T13:12:14.661Z,101275.36
2018-05-12T13:14:42.177Z,101259.34
2018-05-12T13:17:09.646Z,101257.22
2018-05-12T13:19:37.160Z,101259.22
2018-05-12T13:22:04.667Z,101254.55
2018-05-12T13:24:32.150Z,101255.31
2018-05-12T13:26:59.651Z,101252.88
2018-05-12T13:29:27.132Z,101253.67
2018-05-12T13:31:54.662Z,101246.31
2018-05-12T13:34:22.184Z,101251.39
2018-05-12T13:36:49.672Z,101243.19
2018-05-12T13:39:17.686Z,101241.96
2018-05-12T13:41:45.213Z,101237.59
2018-05-12T13:44:12.725Z,101241.60
2018-05-12T13:46:40.221Z,101231.17
2018-05-12T13:49:07.783Z,101235.52
2018-05-12T13:51:35.314Z,101230.33
2018-05-12T13:54:02.848Z,101234.19
2018-05-12T13:56:30.325Z,101232.22
2018-05-12T13:58:57.897Z,101223.95
2018-05-12T14:01:25.438Z,101218.36
2018-05-12T14:03:52.921Z,101219.78
2018-05-12T14:06:20.439Z,101224.44
2018-05-12T14:08:47.955Z,101219.88
2018-05-12T14:11:15.463Z,101214.77
2018-05-12T14:13:42.979Z,101207.97
2018-05-12T14:16:10.568Z,101205.38
2018-05-12T14:18:37.992Z,101203.36
2018-05-12T14:21:05.504Z,101204.44
2018-05-12T14:23:33.019Z,101201.15
2018-05-12T14:26:00.499Z,101209.55
2018-05-12T14:28:28.074Z,101202.37
2018-05-12T14:30:55.584Z,101204.83
2018-05-12T14:33:23.538Z,101195.23
2018-05-12T14:35:51.030Z,101198.70
2018-05-12T14:38:18.503Z,101199.41
2018-05-12T14:40:46.029Z,101199.55
2018-05-12T14:43:13.555Z,101204.59
2018-05-12T14:45:41.054Z,101201.50
2018-05-12T14:48:08.529Z,101204.78
2018-05-12T14:50:36.045Z,101197.64
2018-05-12T14:53:03.544Z,101203.39
2018-05-12T14:55:31.059Z,101203.80
2018-05-12T14:57:58.555Z,101201.37
2018-05-12T15:00:26.054Z,101198.32
2018-05-12T15:02:53.736Z,101196.41
2018-05-12T15:05:21.209Z,101192.66
2018-05-12T15:07:49.194Z,101195.61
2018-05-12T15:10:16.907Z,101196.27
2018-05-12T15:12:44.393Z,101194.58
2018-05-12T15:15:12.012Z,101196.91
2018-05-12T15:17:39.602Z,101195.17
2018-05-12T15:20:07.090Z,101194.59
2018-05-12T15:22:34.633Z,101188.09
2018-05-12T15:25:02.160Z,101194.30
2018-05-12T15:27:29.665Z,101190.71
2018-05-12T15:29:57.152Z,101187.89
2018-05-12T15:32:24.687Z,101186.86
2018-05-12T15:34:52.157Z,101186.36
2018-05-12T15:37:19.678Z,101172.50
2018-05-12T15:39:47.176Z,101181.07
2018-05-12T15:42:14.681Z,101175.58
2018-05-12T15:44:42.186Z,101175.65
2018-05-12T15:47:09.723Z,101169.27
2018-05-12T15:49:37.233Z,101174.64
2018-05-12T15:52:04.705Z,101166.61
2018-05-12T15:54:32.224Z,101174.23
2018-05-12T15:56:59.710Z,101166.52
2018-05-12T15:59:27.253Z,101165.89
2018-05-12T16:01:54.728Z,101160.52
2018-05-12T16:04:22.237Z,101161.99
2018-05-12T16:06:49.793Z,101158.91
2018-05-12T16:09:17.318Z,101150.99
2018-05-12T16:11:44.812Z,101151.86
2018-05-12T16:14:12.309Z,101156.23
2018-05-12T16:16:39.901Z,101146.52
2018-05-12T16:19:08.033Z,101141.17
2018-05-12T16:21:35.554Z,101147.83
2018-05-12T16:24:03.060Z,101148.52
2018-05-12T16:26:30.801Z,101147.88
2018-05-12T16:28:58.301Z,101148.19
2018-05-12T16:31:25.868Z,101143.40
2018-05-12T16:33:53.399Z,101143.55
2018-05-12T16:36:20.893Z,101140.91
2018-05-12T16:38:48.403Z,101143.80
2018-05-12T16:41:15.883Z,101139.65
2018-05-12T16:43:43.854Z,101138.39
2018-05-12T16:46:11.369Z,101139.10
2018-05-12T16:48:38.945Z,101133.81
2018-05-12T16:51:06.635Z,101140.62
2018-05-12T16:53:34.083Z,101130.89
2018-05-12T16:56:01.859Z,101128.26
2018-05-12T16:58:29.343Z,101125.00
2018-05-12T17:00:57.341Z,101134.03
2018-05-12T17:03:24.832Z,101134.47
2018-05-12T17:05:52.320Z,101134.77
2018-05-12T17:08:19.890Z,101128.30
2018-05-12T17:10:47.407Z,101131.91
2018-05-12T17:13:15.005Z,101130.26
2018-05-12T17:15:42.446Z,101134.84
2018-05-12T17:18:09.976Z,101129.92
2018-05-12T17:20:37.478Z,101128.13
2018-05-12T17:23:04.978Z,101127.52
2018-05-12T17:25:32.512Z,101131.77
2018-05-12T17:28:00.118Z,101130.02
2018-05-12T17:30:27.661Z,101119.47
2018-05-12T17:32:55.147Z,101125.33
2018-05-12T17:35:22.655Z,101128.17
2018-05-12T17:37:50.264Z,101118.32
2018-05-12T17:40:17.716Z,101121.69
2018-05-12T17:42:45.197Z,101118.73
2018-05-12T17:45:12.703Z,101114.05
2018-05-12T17:47:40.209Z,101110.03
2018-05-12T17:50:07.793Z,101116.02
2018-05-12T17:52:35.238Z,101109.56
2018-05-12T17:55:02.707Z,101114.90
2018-05-12T17:57:30.227Z,101113.08
2018-05-12T17:59:57.708Z,101119.73
2018-05-12T18:02:25.213Z,101117.59
2018-05-12T18:04:52.686Z,101111.56
2018-05-12T18:07:20.295Z,101117.64
2018-05-12T18:09:48.006Z,101114.12
2018-05-12T18:12:15.508Z,101110.95
2018-05-12T18:14:43.020Z,101107.95
2018-05-12T18:17:10.508Z,101111.55
2018-05-12T18:19:38.043Z,101113.20
2018-05-12T18:22:05.551Z,101106.44
2018-05-12T18:24:33.128Z,101107.66
2018-05-12T18:27:00.605Z,101113.84
2018-05-12T18:29:28.107Z,101114.53
2018-05-12T18:31:55.716Z,101106.66
2018-05-12T18:34:23.138Z,101115.09
2018-05-12T18:36:50.641Z,101118.70
2018-05-12T18:39:18.117Z,101118.70
2018-05-12T18:41:45.639Z,101119.98
2018-05-12T18:44:13.169Z,101116.89
2018-05-12T18:46:40.669Z,101118.64
2018-05-12T18:49:08.296Z,101112.97
2018-05-12T18:51:35.788Z,101124.08
2018-05-12T18:54:03.309Z,101117.00
2018-05-12T18:56:30.785Z,101122.08
2018-05-12T18:58:58.372Z,101120.08
2018-05-12T19:01:26.025Z,101117.55
2018-05-12T19:03:53.556Z,101125.67
2018-05-12T19:06:21.097Z,101121.44
2018-05-12T19:08:48.582Z,101133.02
2018-05-12T19:11:16.107Z,101132.28
2018-05-12T19:13:43.624Z,101133.81
2018-05-12T19:16:11.128Z,101136.06
2018-05-12T19:18:38.664Z,101134.31
2018-05-12T19:21:06.155Z,101136.88
2018-05-12T19:23:33.706Z,101134.56
2018-05-12T19:26:01.228Z,101140.48
2018-05-12T19:28:28.757Z,101136.43
2018-05-12T19:30:56.230Z,101144.66
2018-05-12T19:33:23.799Z,101148.14
2018-05-12T19:35:51.265Z,101151.36
2018-05-12T19:38:18.799Z,101150.80
2018-05-12T19:40:46.284Z,101147.63
2018-05-12T19:43:13.857Z,101141.70
2018-05-12T19:45:43.138Z,101149.10
2018-05-12T19:48:10.630Z,101148.16
2018-05-12T19:50:38.583Z,101142.60
2018-05-12T19:53:06.121Z,101149.63
2018-05-12T19:55:33.647Z,101150.25
2018-05-12T19:58:01.271Z,101147.11
2018-05-12T20:00:28.801Z,101143.64
2018-05-12T20:02:56.288Z,101147.39
2018-05-12T20:05:23.806Z,101145.41
2018-05-12T20:07:51.716Z,101147.91
2018-05-12T20:10:19.193Z,101143.56
2018-05-12T20:12:46.711Z,101144.80
2018-05-12T20:15:14.219Z,101148.87
2018-05-12T20:17:41.854Z,101144.05
2018-05-12T20:20:09.334Z,101144.31
2018-05-12T20:22:36.806Z,101140.61
2018-05-12T20:25:04.326Z,101137.86
2018-05-12T20:27:31.842Z,101134.31
2018-05-12T20:29:59.826Z,101139.03
2018-05-12T20:32:27.372Z,101142.44
2018-05-12T20:34:55.359Z,101142.53
2018-05-12T20:37:22.937Z,101140.60
2018-05-12T20:39:50.362Z,101139.19
2018-05-12T20:42:17.876Z,101144.16
2018-05-12T20:44:45.378Z,101147.80
2018-05-12T20:47:12.869Z,101144.75
2018-05-12T20:49:40.399Z,101138.04
2018-05-12T20:52:07.895Z,101150.16
2018-05-12T20:54:35.417Z,101141.91
2018-05-12T20:57:02.942Z,101145.30
2018-05-12T20:59:30.413Z,101144.34
2018-05-12T21:01:57.955Z,101142.61
2018-05-12T21:04:25.522Z,101148.92
2018-05-12T21:06:53.051Z,101140.70
2018-05-12T21:09:20.533Z,101142.47
2018-05-12T21:11:48.023Z,101135.55
2018-05-12T21:14:15.567Z,101141.69
2018-05-12T21:16:43.074Z,101139.14
2018-05-12T21:19:10.601Z,101136.20
2018-05-12T21:21:38.077Z,101126.02
2018-05-12T21:24:05.579Z,101126.95
2018-05-12T21:26:33.078Z,101130.65
2018-05-12T21:29:00.554Z,101131.09
2018-05-12T21:31:28.056Z,101124.20
2018-05-12T21:33:55.621Z,101135.37
2018-05-12T21:36:23.148Z,101137.98
2018-05-12T21:38:50.626Z,101140.32
2018-05-12T21:41:18.790Z,101135.75
2018-05-12T21:43:46.313Z,101133.53
2018-05-12T21:46:14.031Z,101140.01
2018-05-12T21:48:41.556Z,101136.17
2018-05-12T21:51:09.104Z,101137.64
2018-05-12T21:53:36.559Z,101137.20
2018-05-12T21:56:04.089Z,101139.59
2018-05-12T21:58:31.572Z,101140.67
2018-05-12T22:00:59.094Z,101136.16
2018-05-12T22:03:26.614Z,101144.27
2018-05-12T22:05:54.134Z,101139.94
2018-05-12T22:08:21.663Z,101136.30
2018-05-12T22:10:49.178Z,101131.22
2018-05-12T22:13:16.709Z,101129.27
2018-05-12T22:15:44.196Z,101132.95
2018-05-12T22:18:11.695Z,101135.20
2018-05-12T22:20:39.165Z,101131.09
2018-05-12T22:23:06.772Z,101131.21
2018-05-12T22:25:34.273Z,101130.67
2018-05-12T22:28:01.767Z,101133.38
2018-05-12T22:30:29.839Z,101127.79
2018-05-12T22:32:57.314Z,101131.58
2018-05-12T22:35:24.796Z,101132.94
2018-05-12T22:37:52.309Z,101132.97
2018-05-12T22:40:19.819Z,101136.92
2018-05-12T22:42:47.289Z,101137.91
2018-05-12T22:45:14.777Z,101133.44
2018-05-12T22:47:42.289Z,101128.22
2018-05-12T22:50:09.918Z,101126.76
2018-05-12T22:52:37.397Z,101118.98
2018-05-12T22:55:04.880Z,101119.20
2018-05-12T22:57:32.405Z,101113.48
2018-05-12T22:59:59.904Z,101111.94
2018-05-12T23:02:27.384Z,101112.47
2018-05-12T23:04:54.886Z,101113.45
2018-05-12T23:07:22.355Z,101119.34
2018-05-12T23:09:49.891Z,101114.73
2018-05-12T23:12:17.400Z,101120.42
2018-05-12T23:14:44.888Z,101119.61
2018-05-12T23:17:12.400Z,101125.67
2018-05-12T23:19:39.978Z,101123.95
2018-05-12T23:22:07.470Z,101123.78
2018-05-12T23:24:34.947Z,101123.33
2018-05-12T23:27:02.416Z,101121.46
2018-05-12T23:29:30.015Z,101115.96
2018-05-12T23:31:57.494Z,101109.61
2018-05-12T23:34:24.994Z,101112.46
2018-05-12T23:36:52.465Z,101115.26
2018-05-12T23:39:19.975Z,101115.67
2018-05-12T23:41:47.488Z,101119.23
2018-05-12T23:44:14.962Z,101118.84
2018-05-12T23:46:42.478Z,101118.80
2018-05-12T23:49:09.956Z,101112.70
2018-05-12T23:51:37.588Z,101108.47
2018-05-12T23:54:05.073Z,101109.16
2018-05-12T23:56:32.561Z,101103.09
2018-05-12T23:59:00.079Z,101098.19
